Race Coverage Navigation

TS # 43 / Chillicothe, OH  2019

 


TS STATS
TS Distance 58.1 
Total Distance 2528.84 
Miles To Go 513.17 
TS Climbing 2507 
Total Climbing
TS  Elevation
TS  Net Elevation 3997 
Map Filename Open Map 
Directions Filename  
Latitude 39.34 
Longitude -82.95 
Google Map  TimeStation Map 


TS Arrival Data
Arr Ord  #/Name Arrival DT TS Dst Avg This TS Avg Overall
 1 377 - Christoph Strasser  06/18/2019 9:26 58.1  10.44  15.73 
 2 279 - Marko Baloh  06/19/2019 10:35 58.1  9.15  13.6 
 3 609 - Jakob Olsen  06/19/2019 14:44 58.1  12.02  13.28 
 4 617 - SOLO.kiwi (Craig Harper)  06/20/2019 6:42 58.1  7.94  12.25 
 5 T411 - team alpha - tischlerei groemmer  06/20/2019 7:13 58.1  23.09  22.61 
 6 T800 - Backstedt Racing Project 14  06/20/2019 7:41 58.1  23.4  22.54 
 7 T800 - Backstedt Racing Project 14  06/20/2019 7:41 58.1  23.4  22.54 
 8 329 - Peter Oyler  06/20/2019 8:05 58.1  9.37  12.19 
 9 367 - Daniela Genovesi  06/20/2019 10:03 58.1  9.17  12.05 
 10 416 - Leah Goldstein  06/20/2019 11:45 58.1  12.23  11.95 
 11 622 - Thomas Odom-Team Kyle Pease Foundation  06/20/2019 12:58 58.1  14.77  11.88 
 12 623 - Ultra Paka Racing Team (Daniel Polman)  06/20/2019 13:02 58.1  13.78  11.88 
 13 T404 - Gentlemen of speed  06/20/2019 14:18 58.1  18.95  21.24 
 14 T401 - Data Techniques powered by Networks Centre  06/20/2019 15:22 58.1  20.87  21.04 
 15 611 - Marcelo Soares " MIXIRICA "  06/20/2019 15:41 58.1  17.26  11.74 
 16 612 - Markus K. Brandl  06/20/2019 18:33 58.1  11.66  11.59 
 17 T805 - Team Oceanside  06/20/2019 18:54 58.1  22.64  20.5 
 18 615 - Philipp Amhof  06/20/2019 19:04 58.1  10.47  11.56 
 19 T807 - Team ZOE International  06/20/2019 19:23 58.1  27.02  20.43 
 20 T407 - Julian Becker   06/20/2019 20:46 58.1  19.37  20.15 
 21 603 - Alan Bradley  06/20/2019 21:14 58.1  11.58  11.45 
 22 T201 - EAT WELL  06/20/2019 21:17 58.1  21.13  20.03 
 23 T802 - Scorchers  06/20/2019 21:55 58.1  19.37  20.01 
 24 T804 - Team FSHD Skyland Trail  06/21/2019 0:41 58.1  19.69  19.58 
 25 T416 - Team Rotary Raams Polio  06/21/2019 0:48 58.1  19.05  19.55 
 26 510 - John C. Tarlton  06/21/2019 1:52 58.1  11.07  11.22 
 27 T408 - Radeln-fuer-Kinder (Cycling-for-Kids)  06/21/2019 1:55 58.1  21.65  19.36 
 28 T400 - Cantastic4  06/21/2019 4:41 58.1  18.44  18.94 
 29 529 - Isa Pulver  06/21/2019 4:50 58.1  10.83  11.06 
 30 T808 - Antonia's Friends 2019  06/21/2019 5:08 58.1  18.25  18.94 
 31 442 - Joe Barr  06/21/2019 6:29 58.1  11.82  11 
 32 411 - Geoff Brunner  06/21/2019 6:36 58.1  6.69  10.99 
 33 T406 - Operation Walk Midwest  06/21/2019 6:59 58.1  17.26  18.63 
 34 559 - Team Martin RAAM 2019 (Martin Bergmeister)  06/21/2019 8:02 58.1  5.82  10.92 
 35 T418 - The Opportunists  06/21/2019 8:31 58.1  17.09  18.45 
 36 568 - Alexandra Meixner  06/21/2019 12:48 58.1  11.47  10.68 
 37 610 - Kabir Rachure  06/21/2019 13:35 58.1  12.32  10.66 
 38 618 - GREGORY ROBINSON  06/21/2019 14:02 58.1  14.35  10.63 
 39 T410 - Soap-Aid  06/21/2019 14:29 58.1  17.34  17.67 
 40 604 - Chieko Ozawa  06/21/2019 15:46 58.1  10.89  10.55 
 41 T803 - Team EndoPark  06/21/2019 17:58 58.1  18.06  17.27 
 42 T414 - Brazil Nuts  06/21/2019 19:15 58.1  13.94  17.1 
 43 T202 - Integra Medical - BAA Racing  06/21/2019 19:58 58.1  17  16.98 
 44 T412 - Team Aspect  06/21/2019 20:06 58.1  27.02  17 
 45 T405 - High Rollers  06/21/2019 20:10 58.1  17.26  16.98 
 46 399 - Valerio Zamboni  06/21/2019 22:19 58.1  7.7  10.29 
 47 T415 - TEAM FIRE VELO 935  06/21/2019 22:32 58.1  10.66  16.73 
 48 T206 - Project Linear Acceleration  06/21/2019 23:47 58.1  15.63  16.56 
 49 T204 - Lucan CRC  06/22/2019 0:03 58.1  15.92  16.53 
 50 T413 - TEAM BRASIL - SKIPPER  06/22/2019 0:03 58.1  14.71  16.56 
 51 424 - Team i RON man Veterans supporting Veterans  06/22/2019 1:33 58.1  11.62  10.16 
 52 T402 - EA/WFP RAAM Team  06/22/2019 2:25 58.1  11.47  16.29 
 53 T200 - AIR RELAX GoPro TEAM BRASIL  06/22/2019 3:07 58.1  16.68  16.2 
 54 T801 - Mind Over Matter  06/22/2019 4:31 58.1  14.71  16.11 
 55 T806 - Team SuperMarrow  06/22/2019 5:19 58.1  12.86  16.03 
 56 T417 - Team4RAAM 2019 powered by TGW Living Logistics  06/22/2019 7:09 58.1  14.77  15.83 
 57 161 - Seana Hogan  06/22/2019 7:54 58.1  10.13  9.89 
 58 T403 - EKJ Denmark  06/22/2019 8:38 58.1  14.17  15.67 
 59 T409 - Serpentine Golden Girls  06/22/2019 21:07 58.1  13.94  14.55 
 60 T207 - Team Life Time  06/23/2019 3:25 58.1  11.58  14.03 
 61 T210 - Bike Wine Team  06/23/2019 5:52 58.1  13.25  13.84